Time;durP1;ratioP1;P1;durP2;ratioP2;P2;SDS_P1;SDS_P2;PMS_P1;PMS_P2;Temp;Humidity;BMP_temperature;BMP_pressure;BME280_temperature;BME280_humidity;BME280_pressure;Samples;Min_cycle;Max_cycle;Signal;HPM_P1;HPM_P2
2021/09/27 00:01:55;;;;;;;24.52;21.92;;;15.90;99.90;;;16.80;100.00;98132.31;5146401;28;20232;-62
2021/09/27 00:04:28;;;;;;;23.25;20.77;;;15.90;99.90;;;16.81;100.00;98137.53;5154597;28;20311;-61
2021/09/27 00:07:02;;;;;;;24.73;20.77;;;16.00;99.90;;;16.81;100.00;98132.34;5151416;28;20235;-61
2021/09/27 00:09:35;;;;;;;32.42;21.77;;;16.00;99.90;;;16.73;100.00;98136.31;5151538;28;20219;-62
2021/09/27 00:12:10;;;;;;;23.33;20.80;;;15.90;99.90;;;16.73;100.00;98119.97;5149893;28;20219;-62
2021/09/27 00:14:43;;;;;;;23.17;20.02;;;15.80;99.90;;;16.62;100.00;98120.41;5151534;28;20558;-62
2021/09/27 00:17:18;;;;;;;24.77;20.02;;;15.70;99.90;;;16.57;100.00;98128.84;5152392;28;20285;-62
2021/09/27 00:19:51;;;;;;;22.27;19.95;;;15.80;99.90;;;16.54;100.00;98129.59;5150476;28;20579;-61
2021/09/27 00:22:24;;;;;;;24.85;21.70;;;15.80;99.90;;;16.57;100.00;98129.72;5154122;28;20222;-62
2021/09/27 00:24:57;;;;;;;25.23;22.08;;;15.80;99.90;;;16.58;100.00;98130.59;5156402;28;20199;-62
2021/09/27 00:27:30;;;;;;;21.35;19.17;;;15.70;99.90;;;16.50;100.00;98127.72;5154355;28;20196;-61
2021/09/27 00:30:06;;;;;;;20.67;18.58;;;15.70;99.90;;;16.50;100.00;98125.13;5154786;28;20219;-61
2021/09/27 00:32:41;;;;;;;19.73;17.73;;;15.60;99.90;;;16.47;100.00;98135.34;5150486;28;20229;-62
2021/09/27 00:35:17;;;;;;;18.95;17.15;;;15.60;99.90;;;16.45;100.00;98144.72;5152136;28;20207;-62
2021/09/27 00:37:51;;;;;;;18.05;16.42;;;15.60;99.90;;;16.42;100.00;98136.84;5156903;28;20286;-62
2021/09/27 00:40:28;;;;;;;19.15;17.35;;;15.50;99.90;;;16.42;100.00;98137.75;5150250;28;20196;-62
2021/09/27 00:43:02;;;;;;;18.60;16.70;;;15.50;99.90;;;16.39;100.00;98131.56;5150427;28;20223;-60
2021/09/27 00:45:40;;;;;;;19.48;17.67;;;15.50;99.90;;;16.37;100.00;98140.97;5150997;28;20286;-62
2021/09/27 00:48:15;;;;;;;19.67;17.77;;;15.50;99.90;;;16.39;100.00;98126.41;5150666;28;20690;-62
2021/09/27 00:50:52;;;;;;;18.33;16.55;;;15.50;99.90;;;16.39;100.00;98136.75;5151399;28;20218;-61
2021/09/27 00:53:31;;;;;;;19.23;17.42;;;15.50;99.90;;;16.39;100.00;98129.00;5153651;28;20230;-62
2021/09/27 00:56:06;;;;;;;19.30;17.38;;;15.50;99.90;;;16.41;100.00;98127.38;5157402;28;20617;-60
2021/09/27 00:58:39;;;;;;;20.75;18.55;;;15.50;99.90;;;16.41;100.00;98124.78;5149295;28;20578;-62
2021/09/27 01:01:13;;;;;;;19.42;17.63;;;15.50;99.90;;;16.40;100.00;98121.34;5148027;28;20391;-62
2021/09/27 01:03:48;;;;;;;20.75;18.70;;;15.50;99.90;;;16.39;100.00;98121.25;5153047;28;20278;-62
2021/09/27 01:06:37;;;;;;;19.65;17.70;;;15.50;99.90;;;16.40;100.00;98120.47;5155305;28;20202;-60
2021/09/27 01:09:24;;;;;;;21.20;18.92;;;15.50;99.90;;;16.36;100.00;98113.41;5148119;28;20307;-60
2021/09/27 01:12:26;;;;;;;19.20;17.27;;;15.50;99.90;;;16.29;100.00;98122.63;5147422;28;20216;-61
2021/09/27 01:15:16;;;;;;;20.23;18.10;;;15.40;99.90;;;16.30;100.00;98123.50;5151147;28;20205;-61
2021/09/27 01:18:07;;;;;;;20.50;18.42;;;15.40;99.90;;;16.33;100.00;98118.44;5147069;28;20639;-61
2021/09/27 01:21:21;;;;;;;20.60;18.40;;;15.50;99.90;;;16.34;100.00;98125.34;5148385;28;20204;-61
2021/09/27 01:25:09;;;;;;;18.40;16.50;;;15.50;99.90;;;16.28;100.00;98125.13;5146714;28;20207;-61
2021/09/27 01:28:21;;;;;;;18.42;16.67;;;15.40;99.90;;;16.23;100.00;98124.97;5144786;28;20204;-62
2021/09/27 01:31:40;;;;;;;18.80;16.58;;;15.40;99.90;;;16.24;100.00;98128.41;5092253;29;20238;-62
2021/09/27 01:34:19;;;;;;;39.22;17.00;;;15.40;99.90;;;16.17;100.00;98122.16;5091506;28;20205;-61
2021/09/27 01:37:00;;;;;;;15.60;13.73;;;15.30;99.90;;;16.13;100.00;98126.28;5149552;28;20210;-62
2021/09/27 01:39:42;;;;;;;16.63;15.02;;;15.20;99.90;;;16.09;100.00;98124.41;5162431;28;20222;-61
2021/09/27 01:42:23;;;;;;;17.90;16.23;;;15.20;99.90;;;16.12;100.00;98127.13;5157051;28;20219;-61
2021/09/27 01:45:01;;;;;;;17.33;15.63;;;15.20;99.90;;;16.07;100.00;98125.16;5158886;28;20207;-61
2021/09/27 01:47:45;;;;;;;17.92;16.23;;;15.20;99.90;;;16.08;100.00;98132.97;5159586;28;20214;-62
2021/09/27 01:50:27;;;;;;;21.92;15.98;;;15.20;99.90;;;16.08;100.00;98125.25;5159176;28;20230;-62
2021/09/27 01:53:06;;;;;;;19.55;15.40;;;15.20;99.90;;;16.10;100.00;98128.75;5163192;28;20527;-62
2021/09/27 01:55:48;;;;;;;16.17;14.60;;;15.20;99.90;;;16.04;100.00;98122.47;5157058;28;20202;-58
2021/09/27 01:58:33;;;;;;;17.00;14.43;;;15.20;99.90;;;16.05;100.00;98119.94;5162902;28;20199;-58
2021/09/27 02:01:19;;;;;;;16.65;15.20;;;15.20;99.90;;;16.04;100.00;98122.47;5160844;28;20206;-56
2021/09/27 02:03:58;;;;;;;16.20;14.18;;;15.20;99.90;;;16.04;100.00;98119.91;5163629;28;20239;-57
2021/09/27 02:06:43;;;;;;;15.27;13.90;;;15.20;99.90;;;16.04;100.00;98115.59;5160484;28;20675;-58
2021/09/27 02:09:22;;;;;;;15.23;14.02;;;15.20;99.90;;;16.05;100.00;98124.22;5159928;28;20567;-58
2021/09/27 02:12:03;;;;;;;15.90;14.50;;;15.20;99.90;;;16.02;100.00;98122.41;5157802;28;20226;-58
2021/09/27 02:14:43;;;;;;;16.13;14.82;;;15.10;99.90;;;16.04;100.00;98120.78;5158921;28;20203;-58
2021/09/27 02:17:24;;;;;;;16.65;14.98;;;15.10;99.90;;;16.03;100.00;98128.47;5159941;28;20205;-57
2021/09/27 02:20:03;;;;;;;14.88;13.50;;;15.10;99.90;;;16.04;100.00;98114.75;5156677;28;20205;-55
2021/09/27 02:22:46;;;;;;;15.18;13.77;;;15.20;99.90;;;15.99;100.00;98120.59;5162009;28;20222;-57
2021/09/27 02:25:23;;;;;;;16.25;14.75;;;15.10;99.90;;;15.93;100.00;98117.75;5159802;28;20195;-57
2021/09/27 02:27:56;;;;;;;17.63;15.98;;;15.10;99.90;;;15.91;100.00;98115.94;5159016;28;20310;-58
2021/09/27 02:30:39;;;;;;;19.63;16.90;;;15.10;99.90;;;15.85;100.00;98115.69;5157946;28;20220;-56
2021/09/27 02:33:23;;;;;;;19.50;17.50;;;15.00;99.90;;;15.80;100.00;98119.81;5157559;28;20225;-56
2021/09/27 02:36:03;;;;;;;18.45;16.55;;;15.00;99.90;;;15.74;100.00;98111.00;5159902;28;20213;-56
2021/09/27 02:38:49;;;;;;;19.25;15.98;;;14.90;99.90;;;15.75;100.00;98112.75;5156786;28;20311;-58
2021/09/27 02:41:29;;;;;;;17.30;15.48;;;14.90;99.90;;;15.75;100.00;98115.31;5157142;28;20294;-57
2021/09/27 02:44:02;;;;;;;27.83;17.60;;;15.00;99.90;;;15.80;100.00;98109.50;5160923;28;20297;-57
2021/09/27 02:46:42;;;;;;;19.05;17.05;;;14.90;99.90;;;15.79;100.00;98115.44;5158323;28;20299;-57
2021/09/27 02:49:16;;;;;;;28.67;17.77;;;15.00;99.90;;;15.81;100.00;98117.28;5156568;28;20652;-58
2021/09/27 02:51:49;;;;;;;18.00;16.23;;;15.00;99.90;;;15.84;100.00;98108.78;5156884;28;20222;-57
2021/09/27 02:54:34;;;;;;;20.33;16.02;;;15.00;99.90;;;15.82;100.00;98105.25;5155546;28;20209;-58
2021/09/27 02:57:40;;;;;;;16.92;15.38;;;15.00;99.90;;;15.82;100.00;98110.41;5159419;28;20204;-57
2021/09/27 03:00:18;;;;;;;18.42;15.05;;;15.00;99.90;;;15.82;100.00;98107.84;5149476;28;20613;-56
2021/09/27 03:03:07;;;;;;;17.55;15.68;;;15.00;99.90;;;15.82;100.00;98107.84;5155361;28;20234;-56
2021/09/27 03:05:55;;;;;;;16.50;14.77;;;15.00;99.90;;;15.87;100.00;98103.75;5155842;28;20203;-55
2021/09/27 03:08:56;;;;;;;16.02;14.55;;;15.00;99.90;;;15.80;100.00;98102.63;5153578;28;20204;-52
2021/09/27 03:12:06;;;;;;;15.98;14.57;;;14.90;99.90;;;15.79;100.00;98099.97;5152294;28;20603;-58
2021/09/27 03:15:19;;;;;;;15.65;14.13;;;15.00;99.90;;;15.73;100.00;98096.31;5153438;28;20195;-56
2021/09/27 03:18:01;;;;;;;15.57;14.07;;;14.90;99.90;;;15.72;100.00;98096.28;5147622;28;20208;-58
2021/09/27 03:20:59;;;;;;;18.98;13.55;;;14.90;99.90;;;15.73;100.00;98108.34;5152560;28;20196;-58
2021/09/27 03:23:42;;;;;;;20.20;14.07;;;14.80;99.90;;;15.69;100.00;98103.91;5157422;28;20222;-58
2021/09/27 03:26:32;;;;;;;16.02;13.25;;;14.80;99.90;;;15.62;100.00;98107.84;5153907;28;20291;-56
2021/09/27 03:29:19;;;;;;;15.68;14.20;;;14.80;99.90;;;15.61;100.00;98110.38;5150636;28;20199;-54
2021/09/27 03:32:05;;;;;;;15.88;14.40;;;14.80;99.90;;;15.57;100.00;98106.81;5147276;28;20235;-58
2021/09/27 03:34:51;;;;;;;15.73;14.32;;;14.80;99.90;;;15.62;100.00;98113.00;5148180;28;20286;-55
2021/09/27 03:37:50;;;;;;;17.83;16.05;;;14.80;99.90;;;15.62;100.00;98105.28;5148531;28;20203;-52
2021/09/27 03:40:35;;;;;;;17.65;15.80;;;14.80;99.90;;;15.61;100.00;98113.84;5155561;28;20195;-56
2021/09/27 03:43:21;;;;;;;24.65;16.48;;;14.80;99.90;;;15.53;100.00;98108.34;5156746;28;20588;-56
2021/09/27 03:46:08;;;;;;;23.70;15.13;;;14.70;99.90;;;15.44;100.00;98100.25;5160951;28;20285;-55
2021/09/27 03:48:48;;;;;;;24.73;16.58;;;14.60;99.90;;;15.44;100.00;98115.72;5161994;28;20206;-56
2021/09/27 03:51:28;;;;;;;24.60;17.23;;;14.70;99.90;;;15.47;100.00;98114.97;5160297;28;20223;-55
2021/09/27 03:54:08;;;;;;;26.45;17.17;;;14.70;99.90;;;15.47;100.00;98113.25;5149453;28;20674;-55
2021/09/27 03:56:47;;;;;;;17.83;15.93;;;14.70;99.90;;;15.48;100.00;98116.72;5157944;28;20207;-55
2021/09/27 03:59:25;;;;;;;36.70;15.82;;;14.70;99.90;;;15.40;100.00;98110.38;5161510;28;20285;-56
2021/09/27 04:02:09;;;;;;;19.63;13.98;;;14.60;99.90;;;15.41;100.00;98119.88;5157548;28;20231;-58
2021/09/27 04:05:00;;;;;;;21.65;14.45;;;14.50;99.90;;;15.38;100.00;98124.88;5156059;28;20202;-57
2021/09/27 04:07:56;;;;;;;18.63;15.43;;;14.50;99.90;;;15.29;100.00;98131.41;5157587;28;20356;-54
2021/09/27 04:10:43;;;;;;;15.95;13.77;;;14.50;99.90;;;15.28;100.00;98134.81;5156404;28;20304;-56
2021/09/27 04:13:28;;;;;;;18.95;16.92;;;14.40;99.90;;;15.32;100.00;98120.34;5156389;28;20314;-57
2021/09/27 04:16:20;;;;;;;15.90;14.38;;;14.50;99.90;;;15.32;100.00;98128.97;5157913;28;20715;-55
2021/09/27 04:19:05;;;;;;;14.57;13.38;;;14.50;99.90;;;15.27;100.00;98133.03;5156751;28;20686;-54
2021/09/27 04:21:47;;;;;;;17.10;15.48;;;14.40;99.90;;;15.33;100.00;98133.28;5156029;28;20229;-57
2021/09/27 04:24:42;;;;;;;15.65;14.15;;;14.50;99.90;;;15.33;100.00;98130.69;5156835;28;20245;-58
2021/09/27 04:27:31;;;;;;;17.25;15.20;;;14.50;99.90;;;15.30;100.00;98134.84;5156025;28;20206;-56
2021/09/27 04:31:01;;;;;;;17.55;15.60;;;14.50;99.90;;;15.27;100.00;98127.88;5151027;28;20628;-56
2021/09/27 04:34:03;;;;;;;23.27;14.00;;;14.50;99.90;;;15.28;100.00;98119.34;5059162;29;20633;-56
2021/09/27 04:36:40;;;;;;;36.03;14.50;;;14.40;99.90;;;15.17;100.00;98120.59;5157189;28;20652;-58
2021/09/27 04:39:17;;;;;;;13.75;12.43;;;14.30;99.90;;;15.18;100.00;98127.47;5156261;28;20199;-52
2021/09/27 04:42:24;;;;;;;14.85;13.45;;;14.30;99.90;;;15.19;100.00;98118.94;5151640;28;20578;-52
2021/09/27 04:45:33;;;;;;;13.68;12.38;;;14.40;99.90;;;15.23;100.00;98119.97;5159629;28;20199;-54
2021/09/27 04:48:17;;;;;;;15.48;13.98;;;14.30;99.90;;;15.23;100.00;98120.84;5155169;28;20285;-57
2021/09/27 04:51:02;;;;;;;15.60;13.85;;;14.40;99.90;;;15.23;100.00;98120.84;5153265;28;20219;-56
2021/09/27 04:54:01;;;;;;;14.45;13.05;;;14.30;99.90;;;15.17;100.00;98114.56;5150496;28;20221;-56
2021/09/27 04:56:46;;;;;;;13.75;12.45;;;14.30;99.90;;;15.19;100.00;98103.47;5154588;28;20286;-57
2021/09/27 04:59:30;;;;;;;14.73;13.43;;;14.30;99.90;;;15.15;100.00;98106.75;5155537;28;20199;-56
2021/09/27 05:02:26;;;;;;;13.93;12.63;;;14.20;99.90;;;15.18;100.00;98111.16;5149352;28;20220;-56
2021/09/27 05:05:08;;;;;;;14.77;13.25;;;14.20;99.90;;;15.03;100.00;98107.09;5154190;28;20196;-56
2021/09/27 05:08:13;;;;;;;13.77;12.48;;;14.10;99.90;;;15.08;100.00;98115.91;5163387;28;20199;-56
2021/09/27 05:11:36;;;;;;;14.77;13.27;;;14.10;99.90;;;15.10;100.00;98106.53;5159824;28;20219;-61
2021/09/27 05:14:46;;;;;;;13.95;12.60;;;14.10;99.90;;;15.09;100.00;98111.66;5157626;28;20201;-57
2021/09/27 05:17:39;;;;;;;14.30;13.00;;;14.10;99.90;;;15.13;100.00;98113.53;5150769;28;20200;-54
2021/09/27 05:20:35;;;;;;;12.57;11.40;;;14.20;99.90;;;15.16;100.00;98108.50;5151652;28;20196;-58
2021/09/27 05:23:18;;;;;;;13.70;12.50;;;14.20;99.90;;;15.15;100.00;98111.03;5155669;28;20219;-57
2021/09/27 05:26:19;;;;;;;14.70;13.40;;;14.20;99.90;;;15.16;100.00;98118.81;5154107;28;20211;-52
2021/09/27 05:29:07;;;;;;;13.52;12.32;;;14.20;99.90;;;15.15;100.00;98108.44;5159014;28;20216;-54
2021/09/27 05:32:19;;;;;;;13.80;12.60;;;14.20;99.90;;;15.15;100.00;98122.19;5150242;28;20234;-53
2021/09/27 05:35:23;;;;;;;14.52;13.02;;;14.20;99.90;;;15.13;100.00;98126.41;5140648;28;20803;-56
2021/09/27 05:38:08;;;;;;;13.60;12.45;;;14.10;99.90;;;15.09;100.00;98127.97;5163602;28;20199;-53
2021/09/27 05:40:55;;;;;;;12.55;11.50;;;14.10;99.90;;;15.12;100.00;98134.94;5157116;28;20203;-54
2021/09/27 05:44:03;;;;;;;14.18;12.90;;;14.20;99.90;;;15.18;100.00;98132.63;5158794;28;20223;-54
2021/09/27 05:47:05;;;;;;;14.93;13.52;;;14.20;99.90;;;15.30;100.00;98133.16;5152524;28;20579;-57
2021/09/27 05:49:51;;;;;;;14.60;13.38;;;14.20;99.90;;;15.32;100.00;98136.69;5158339;28;20681;-54
2021/09/27 05:52:34;;;;;;;15.60;14.20;;;14.20;99.90;;;15.30;100.00;98135.72;5158358;28;20341;-51
2021/09/27 05:55:19;;;;;;;15.20;13.80;;;14.30;99.90;;;15.29;100.00;98141.72;5162049;28;20204;-57
2021/09/27 05:57:58;;;;;;;15.85;14.45;;;14.40;99.90;;;15.29;100.00;98135.69;5156623;28;20199;-51
2021/09/27 06:00:42;;;;;;;14.48;13.18;;;14.40;99.90;;;15.36;100.00;98134.22;5162242;28;20195;-53
2021/09/27 06:03:41;;;;;;;14.25;12.95;;;14.30;99.90;;;15.42;100.00;98135.38;5157978;28;20611;-55
2021/09/27 06:06:26;;;;;;;14.40;13.10;;;14.40;99.90;;;15.43;100.00;98125.97;5155546;28;20210;-52
2021/09/27 06:09:14;;;;;;;14.95;13.55;;;14.40;99.90;;;15.41;100.00;98128.47;5157689;28;20569;-55
2021/09/27 06:11:56;;;;;;;14.18;12.88;;;14.40;99.90;;;15.43;100.00;98132.00;5154174;28;20691;-55
2021/09/27 06:14:33;;;;;;;17.05;15.55;;;14.40;99.90;;;15.48;100.00;98130.50;5161243;28;20207;-55
2021/09/27 06:17:24;;;;;;;14.85;13.57;;;14.50;99.90;;;15.60;100.00;98136.97;5150823;28;20206;-56
2021/09/27 06:20:09;;;;;;;16.13;14.73;;;14.60;99.90;;;15.91;100.00;98136.56;5152457;28;20614;-52
2021/09/27 06:23:15;;;;;;;14.90;13.68;;;14.80;99.90;;;16.37;98.93;98125.50;5155101;28;20214;-55
2021/09/27 06:25:58;;;;;;;14.30;13.00;;;15.10;99.90;;;16.92;95.18;98127.59;5153843;28;20207;-53
2021/09/27 06:28:40;;;;;;;16.27;14.68;;;15.40;99.90;;;17.34;93.59;98127.38;5155642;28;20635;-53
2021/09/27 06:31:25;;;;;;;15.35;13.90;;;15.60;99.90;;;17.55;91.22;98120.34;5154294;28;20292;-53
2021/09/27 06:34:05;;;;;;;14.57;13.27;;;15.90;99.90;;;17.90;90.98;98120.66;5153570;28;20294;-55
2021/09/27 06:36:40;;;;;;;13.32;12.13;;;16.10;99.90;;;18.50;85.90;98119.06;5154441;28;20204;-55
2021/09/27 06:39:19;;;;;;;12.50;11.50;;;16.40;99.90;;;18.93;84.28;98125.50;5159289;28;20205;-56
2021/09/27 06:41:53;;;;;;;11.77;10.77;;;16.60;99.90;;;19.31;81.04;98124.84;5155807;28;20229;-57
2021/09/27 06:44:26;;;;;;;12.27;11.18;;;16.80;99.90;;;19.62;78.84;98136.03;5151726;28;20590;-54
2021/09/27 06:47:01;;;;;;;11.52;10.60;;;17.10;99.90;;;19.78;77.95;98129.56;5154232;28;20588;-57
2021/09/27 06:49:34;;;;;;;11.85;10.82;;;17.30;99.90;;;19.61;78.01;98133.41;5146951;28;20223;-54
2021/09/27 06:52:08;;;;;;;11.60;10.70;;;17.40;99.90;;;19.45;80.09;98129.53;5155474;28;20726;-55
2021/09/27 06:54:41;;;;;;;12.77;11.60;;;17.40;99.90;;;19.44;79.73;98127.78;5156445;28;20199;-52
2021/09/27 06:57:14;;;;;;;13.73;12.63;;;17.50;99.90;;;19.58;79.98;98123.84;5150192;28;20632;-54
2021/09/27 06:59:47;;;;;;;14.25;12.93;;;17.80;99.90;;;19.70;79.18;98124.16;5156527;28;20211;-54
2021/09/27 07:02:24;;;;;;;13.25;12.25;;;18.00;99.90;;;19.92;78.19;98124.72;5158384;28;20744;-54
2021/09/27 07:04:57;;;;;;;12.32;11.38;;;18.20;99.90;;;20.07;77.39;98126.78;5161050;28;20641;-59
2021/09/27 07:07:30;;;;;;;12.07;11.18;;;18.30;99.90;;;20.27;76.36;98122.06;5153127;28;20673;-55
2021/09/27 07:10:06;;;;;;;11.45;10.55;;;18.60;99.90;;;20.38;75.97;98115.41;5155065;28;20204;-55
2021/09/27 07:12:39;;;;;;;12.60;11.57;;;18.70;99.90;;;20.46;76.27;98113.88;5156019;28;20317;-57
2021/09/27 07:15:14;;;;;;;12.45;11.32;;;18.90;99.90;;;20.55;76.24;98114.09;5156394;28;20890;-54
2021/09/27 07:17:48;;;;;;;11.73;10.82;;;19.10;99.90;;;20.53;75.18;98109.69;5153721;28;20208;-53
2021/09/27 07:20:28;;;;;;;12.07;11.07;;;19.00;99.90;;;20.33;75.91;98111.81;5153473;28;20202;-56
2021/09/27 07:23:01;;;;;;;12.55;11.48;;;18.90;99.90;;;20.34;75.76;98105.78;5157952;28;20598;-52
2021/09/27 07:25:35;;;;;;;12.88;11.77;;;18.80;99.90;;;20.18;75.33;98097.66;5158772;28;20203;-53
2021/09/27 07:28:08;;;;;;;12.18;11.10;;;18.70;99.90;;;20.02;76.35;98100.72;5154960;28;20703;-56
2021/09/27 07:30:42;;;;;;;12.50;11.40;;;18.50;99.90;;;20.03;76.25;98092.13;5157167;28;20209;-55
2021/09/27 07:33:16;;;;;;;12.52;11.40;;;18.50;99.90;;;20.05;76.79;98098.19;5153100;28;20318;-54
2021/09/27 07:35:49;;;;;;;11.57;10.68;;;18.70;99.90;;;20.07;77.18;98099.13;5152485;28;20205;-54
2021/09/27 07:38:23;;;;;;;12.38;11.38;;;18.80;99.90;;;20.33;76.17;98093.66;5151861;28;20294;-52
2021/09/27 07:40:56;;;;;;;12.77;11.60;;;19.00;99.90;;;20.46;76.26;98091.38;5152471;28;20223;-56
2021/09/27 07:43:29;;;;;;;12.32;11.32;;;19.20;99.90;;;20.70;74.75;98088.44;5152612;28;20245;-57
2021/09/27 07:46:02;;;;;;;12.52;11.52;;;19.50;99.90;;;20.78;74.50;98091.19;5151575;28;21930;-52
2021/09/27 07:48:37;;;;;;;11.52;10.52;;;19.60;99.90;;;20.88;74.75;98080.13;5148406;28;20563;-57
2021/09/27 07:51:10;;;;;;;13.32;12.13;;;19.80;99.90;;;21.02;73.22;98085.59;5151251;28;20199;-57
2021/09/27 07:53:43;;;;;;;11.85;10.82;;;20.00;99.90;;;21.22;72.58;98083.38;5152178;28;20227;-57
2021/09/27 07:56:16;;;;;;;11.57;10.55;;;20.00;99.90;;;21.24;71.59;98083.41;5149012;28;20199;-54
2021/09/27 07:58:50;;;;;;;12.45;11.43;;;20.30;99.90;;;21.22;71.95;98092.91;5146735;28;20233;-55
2021/09/27 08:01:23;;;;;;;11.82;10.75;;;20.40;99.90;;;21.34;72.08;98085.31;5150528;28;20648;-57
2021/09/27 08:03:57;;;;;;;12.30;11.38;;;20.30;99.90;;;21.33;71.16;98083.56;5147258;28;20192;-56
2021/09/27 08:06:31;;;;;;;11.88;10.82;;;20.40;99.90;;;21.13;72.23;98089.28;5150501;28;20207;-59
2021/09/27 08:09:04;;;;;;;12.43;11.40;;;20.30;99.90;;;21.02;73.37;98080.41;5155305;28;20199;-53
2021/09/27 08:11:42;;;;;;;12.30;11.20;;;20.20;99.90;;;21.40;71.35;98071.59;5151140;28;20223;-53
2021/09/27 08:14:15;;;;;;;11.38;10.27;;;20.40;99.90;;;21.48;70.89;98070.88;5147202;28;20705;-55
2021/09/27 08:16:48;;;;;;;11.95;10.90;;;20.50;99.90;;;21.79;69.36;98076.59;5142675;28;20896;-56
2021/09/27 08:19:25;;;;;;;11.90;10.70;;;20.80;99.90;;;21.74;69.92;98076.50;5144800;28;20317;-58
2021/09/27 08:21:58;;;;;;;12.45;11.30;;;20.80;99.90;;;21.96;69.56;98080.31;5151456;28;20231;-58
2021/09/27 08:24:31;;;;;;;10.40;9.50;;;21.10;99.90;;;22.26;65.57;98079.06;5155202;28;20191;-54
2021/09/27 08:27:05;;;;;;;11.13;10.23;;;21.40;99.90;;;22.41;65.05;98078.41;5160980;28;20211;-56
2021/09/27 08:29:38;;;;;;;11.75;10.75;;;21.50;99.90;;;22.62;65.71;98088.25;5157202;28;20199;-55
2021/09/27 08:32:11;;;;;;;10.98;10.00;;;21.70;99.90;;;22.75;65.56;98084.03;5158911;28;20229;-57
2021/09/27 08:34:49;;;;;;;10.30;9.45;;;21.90;99.90;;;22.86;64.58;98098.09;5154867;28;20726;-56
2021/09/27 08:37:23;;;;;;;10.25;9.45;;;22.00;99.90;;;23.05;63.43;98099.22;5159636;28;20667;-55
2021/09/27 08:39:56;;;;;;;10.85;9.85;;;22.10;99.90;;;23.29;63.07;98096.91;5154034;28;20202;-56
2021/09/27 08:42:38;;;;;;;10.50;9.60;;;22.30;99.90;;;23.39;62.20;98096.13;5158721;28;20227;-55
2021/09/27 08:45:19;;;;;;;10.25;9.35;;;22.40;99.90;;;23.41;62.63;98097.84;5151902;28;20294;-55
2021/09/27 08:47:59;;;;;;;10.18;9.38;;;22.40;99.90;;;23.48;61.92;98091.84;5159310;28;20298;-55
2021/09/27 08:50:38;;;;;;;10.98;10.07;;;22.40;99.90;;;23.52;62.04;98091.00;5160910;28;20199;-58
2021/09/27 08:53:26;;;;;;;10.80;9.85;;;22.60;99.90;;;23.53;61.76;98087.56;5156849;28;20219;-53
2021/09/27 08:56:19;;;;;;;10.70;9.80;;;22.50;99.90;;;23.53;61.65;98095.38;5161276;28;20642;-54
2021/09/27 08:59:02;;;;;;;9.52;8.73;;;22.60;99.90;;;23.57;61.71;98091.94;5153970;28;20204;-56
2021/09/27 09:01:45;;;;;;;9.38;8.60;;;22.60;99.90;;;23.61;61.45;98085.91;5154407;28;20309;-52
2021/09/27 09:04:27;;;;;;;10.00;9.20;;;22.70;99.90;;;23.60;61.53;98090.22;5157675;28;20199;-57
2021/09/27 09:07:07;;;;;;;9.13;8.43;;;22.80;99.90;;;23.66;60.47;98088.53;5157683;28;20214;-51
2021/09/27 09:09:47;;;;;;;9.30;8.60;;;22.70;99.90;;;23.68;61.08;98082.47;5153109;28;20293;-55
2021/09/27 09:12:30;;;;;;;8.77;8.18;;;22.80;99.90;;;23.74;60.85;98086.88;5154645;28;20216;-58
2021/09/27 09:15:09;;;;;;;9.20;8.50;;;23.00;99.90;;;23.87;60.57;98095.72;5159698;28;20230;-54
2021/09/27 09:17:49;;;;;;;8.55;7.93;;;23.10;99.90;;;23.94;60.20;98097.50;5154636;28;20195;-56
2021/09/27 09:20:42;;;;;;;9.25;8.57;;;23.20;99.90;;;24.01;60.06;98101.91;5158826;28;20195;-53
2021/09/27 09:23:27;;;;;;;8.88;8.05;;;23.30;99.90;;;24.01;59.35;98096.69;5154372;28;20731;-55
2021/09/27 09:26:03;;;;;;;9.40;8.60;;;23.20;99.90;;;24.14;58.97;98090.69;5152486;28;20196;-55
2021/09/27 09:28:38;;;;;;;8.45;7.85;;;23.50;99.90;;;24.28;58.45;98091.66;5154007;28;20290;-53
2021/09/27 09:31:17;;;;;;;8.02;7.43;;;23.60;99.90;;;24.38;57.17;98087.38;5153345;28;20643;-53
2021/09/27 09:33:55;;;;;;;8.02;7.40;;;23.60;99.90;;;24.17;56.94;98082.00;5160494;28;20770;-55
2021/09/27 09:36:38;;;;;;;7.78;7.18;;;23.30;99.90;;;24.13;58.35;98090.69;5149111;28;20290;-55
2021/09/27 09:39:19;;;;;;;7.88;7.28;;;23.20;99.90;;;24.14;57.36;98088.06;5155280;28;20203;-58
2021/09/27 09:41:55;;;;;;;8.10;7.40;;;23.20;99.90;;;24.17;58.66;98084.59;5157942;28;20257;-53
2021/09/27 09:44:40;;;;;;;7.88;7.28;;;23.40;99.90;;;24.23;57.06;98084.63;5151237;28;20212;-53
2021/09/27 09:47:22;;;;;;;7.50;7.00;;;23.50;99.90;;;24.25;56.98;98085.53;5156953;28;20199;-56
2021/09/27 09:50:01;;;;;;;7.97;7.25;;;23.60;99.90;;;24.25;57.17;98089.00;5145894;28;20691;-58
2021/09/27 09:52:38;;;;;;;7.93;7.20;;;23.50;99.90;;;24.27;56.53;98086.44;5150428;28;20707;-57
2021/09/27 09:55:21;;;;;;;7.50;6.90;;;23.40;99.90;;;24.33;56.04;98081.22;5154118;28;20222;-58
2021/09/27 09:57:59;;;;;;;7.05;6.45;;;23.30;99.90;;;24.35;56.19;98073.38;5146148;28;20239;-52
2021/09/27 10:00:47;;;;;;;6.90;6.40;;;23.50;99.90;;;24.31;56.99;98082.09;5146804;28;20192;-55
2021/09/27 10:03:30;;;;;;;6.40;5.93;;;23.60;99.90;;;24.33;55.40;98082.97;5147710;28;20241;-56
2021/09/27 10:06:07;;;;;;;6.20;5.70;;;23.70;99.90;;;24.37;55.56;98072.53;5151989;28;20205;-56
2021/09/27 10:08:48;;;;;;;6.22;5.72;;;23.60;99.90;;;24.41;55.30;98073.41;5150192;28;20199;-62
2021/09/27 10:11:33;;;;;;;10.38;9.52;;;23.60;99.90;;;24.42;55.22;98078.66;5159259;28;20677;-60
2021/09/27 10:14:21;;;;;;;10.40;9.38;;;23.60;99.90;;;24.45;54.38;98070.00;5156907;28;20637;-60
2021/09/27 10:17:09;;;;;;;6.55;5.95;;;23.70;99.90;;;24.37;54.53;98064.69;5154148;28;20297;-54
2021/09/27 10:19:54;;;;;;;5.85;5.45;;;23.60;99.90;;;24.36;53.66;98069.94;5153614;28;20209;-55
2021/09/27 10:22:35;;;;;;;6.13;5.72;;;23.70;99.90;;;24.39;53.87;98056.88;5150745;28;20219;-53
2021/09/27 10:25:28;;;;;;;5.82;5.35;;;23.60;99.90;;;24.54;53.75;98066.56;5155431;28;20564;-56
2021/09/27 10:28:06;;;;;;;5.85;5.45;;;23.70;99.90;;;24.53;53.17;98064.81;5147599;28;20203;-54
2021/09/27 10:30:43;;;;;;;5.65;5.25;;;23.80;99.90;;;24.58;53.67;98074.44;5151244;28;20603;-56
2021/09/27 10:33:20;;;;;;;5.93;5.43;;;23.80;99.90;;;24.55;53.55;98063.94;5150951;28;20214;-57
2021/09/27 10:35:57;;;;;;;5.93;5.43;;;23.80;99.90;;;24.61;53.39;98061.38;5146289;28;20213;-57
2021/09/27 10:38:40;;;;;;;5.47;5.07;;;23.80;99.90;;;24.58;53.59;98063.09;5149396;28;20451;-53
2021/09/27 10:41:22;;;;;;;5.70;5.30;;;23.70;99.90;;;24.66;52.92;98057.03;5146326;28;20294;-59
2021/09/27 10:44:02;;;;;;;5.25;4.85;;;23.80;99.90;;;24.78;52.49;98061.44;5148240;28;20573;-58
2021/09/27 10:46:40;;;;;;;5.32;4.88;;;23.80;99.90;;;24.65;52.87;98063.13;5147438;28;20217;-55
2021/09/27 10:49:17;;;;;;;5.72;5.28;;;23.80;99.90;;;24.53;52.39;98063.09;5151645;28;20198;-54
2021/09/27 10:51:57;;;;;;;5.45;5.05;;;23.70;99.90;;;24.50;53.02;98063.06;5150043;28;20766;-53
2021/09/27 10:54:42;;;;;;;5.35;4.85;;;23.70;99.90;;;24.39;53.27;98068.19;5147246;28;20219;-53
2021/09/27 10:57:20;;;;;;;5.43;4.85;;;23.70;99.90;;;24.51;52.95;98067.41;5151082;28;21492;-58
2021/09/27 10:59:59;;;;;;;4.85;4.45;;;23.80;99.90;;;24.49;51.89;98059.59;5152335;28;20207;-55
2021/09/27 11:02:35;;;;;;;5.18;4.78;;;23.80;99.90;;;24.50;50.96;98061.31;5149054;28;20254;-54
2021/09/27 11:05:17;;;;;;;5.18;4.80;;;23.60;99.80;;;24.34;52.09;98058.59;5150305;28;20196;-57
2021/09/27 11:07:54;;;;;;;4.63;4.32;;;23.60;99.90;;;24.42;52.32;98055.16;5148378;28;20289;-52
2021/09/27 11:10:43;;;;;;;4.97;4.68;;;23.70;99.90;;;24.44;51.89;98050.84;5153777;28;20199;-53